Terminal Aerodrome Forecast
Issued by NWS

Home | Current Version | Previous Version | Text Only | Print | Product List | Glossary On
Versions: 1 2 3 4 5 6 7 8 9 10 11 12 13 14 15 16 17 18 19 20
368
FTUS43 KMPX 301127
TAFAXN
TAF
KAXN 301127Z 3012/3112 18005KT P6SM SCT080 BKN120
     FM301700 19009KT P6SM VCSH BKN080
     FM310100 13008KT P6SM VCTS BKN060CB
      TEMPO 3103/3106 2SM TSRA OVC045CB
     FM310600 20011KT 6SM -SHRA VCTS SCT035CB OVC050
     FM310900 24009KT P6SM VCSH OVC035=

USA.gov is the U.S. government's official web portal to all federal, state and local government web resources and services.